Currently 90°F in Simi Valley, California, USA
90°F
90°F / 60°F
9 mph W
0.00"
Sunday, July 5, 2020 3:34 PM PDT

Simi Valley, California Weather Summary
Last 36 Hours

Temperature Winds Hourly Humidity Dewpoint
Time Report Norm Report Norm Max Gusts Precip. Rpt. Norm Rpt. Norm Pressure
1,2Sun 03:34 PM  90.0°F  84°F  9 mph W  7 mph  13 mph  0.00"  26%  44%  49°F  59°F  29.89"
Sun 03:00 PM  89.7°F  84°F  10 mph SW  7 mph  17 mph  0.00"  28%  43%  51°F  59°F  29.90"
Sun 02:00 PM  89.0°F  85°F  5 mph W  7 mph  17 mph  0.00"  28%  44%  50°F  59°F  29.91"
Sun 01:00 PM  87.9°F  84°F  9 mph W  7 mph  17 mph  0.00"  31%  44%  52°F  60°F  29.93"
Sun 12:00 PM  87.8°F  83°F  7 mph W  5 mph  13 mph  0.00"  29%  47%  50°F  60°F  29.94"
Sun 11:00 AM  85.9°F  79°F  2 mph SW  4 mph  7 mph  0.00"  27%  51%  47°F  59°F  29.94"
Sun 10:00 AM  81.1°F  75°F  2 mph SW  3 mph  5 mph  0.00"  31%  58%  47°F  59°F  29.95"
Sun 09:00 AM  76.0°F  71°F  calm  2 mph  3 mph  0.00"  38%  66%  47°F  59°F  29.96"
Sun 08:00 AM  69.0°F  67°F  calm  1 mph  4 mph  0.00"  46%  73%  47°F  58°F  29.95"
Sun 07:00 AM  62.2°F  63°F  3 mph E  1 mph  7 mph  0.00"  49%  76%  42°F  55°F  29.95"
Sun 06:00 AM  60.2°F  62°F  4 mph S  1 mph  5 mph  0.00"  50%  75%  41°F  54°F  29.95"
3Sun 05:42 AM  60.2°F  62°F  2 mph SE  1 mph  5 mph  ----  50%  75%  41°F  54°F  29.94"
Sun 05:00 AM  61.5°F  62°F  calm  1 mph  5 mph  0.00"  49%  74%  41°F  54°F  29.94"
Sun 04:00 AM  62.6°F  63°F  calm  1 mph  5 mph  0.00"  47%  73%  41°F  54°F  29.93"
Sun 03:00 AM  63.4°F  64°F  1 mph NE  1 mph  6 mph  0.00"  46%  72%  41°F  54°F  29.93"
Sun 02:00 AM  64.6°F  64°F  calm  1 mph  7 mph  0.00"  45%  71%  42°F  54°F  29.94"
Sun 01:00 AM  65.2°F  65°F  calm  1 mph  7 mph  0.00"  46%  69%  43°F  55°F  29.94"
Sun 12:00 AM  66.5°F  66°F  5 mph SW  1 mph  5 mph  0.00"  45%  68%  44°F  55°F  29.96"
Sat 11:00 PM  68.2°F  68°F  calm  1 mph  6 mph  0.00"  46%  67%  46°F  56°F  29.96"
Sat 10:00 PM  71.3°F  69°F  calm  1 mph  5 mph  0.00"  46%  66%  49°F  57°F  29.98"
Sat 09:00 PM  74.9°F  71°F  3 mph W  2 mph  7 mph  0.00"  47%  63%  52°F  58°F  29.97"
Sat 08:00 PM  79.3°F  75°F  3 mph W  4 mph  10 mph  0.00"  38%  57%  50°F  58°F  29.96"
Sat 07:00 PM  84.2°F  79°F  5 mph W  5 mph  13 mph  0.00"  28%  50%  47°F  58°F  29.96"
Sat 06:00 PM  86.9°F  81°F  5 mph NW  6 mph  15 mph  0.00"  22%  47%  43°F  58°F  29.95"
Sat 05:00 PM  87.1°F  83°F  7 mph W  7 mph  15 mph  0.00"  25%  45%  46°F  58°F  29.95"
Sat 04:00 PM  86.6°F  84°F  9 mph W  7 mph  18 mph  0.00"  25%  44%  45°F  59°F  29.97"
Sat 03:00 PM  87.0°F  84°F  7 mph W  7 mph  17 mph  0.00"  25%  43%  45°F  59°F  29.98"
Sat 02:00 PM  88.1°F  84°F  11 mph SW  7 mph  17 mph  0.00"  23%  44%  45°F  59°F  29.99"
Sat 01:00 PM  87.7°F  84°F  9 mph W  7 mph  16 mph  0.00"  22%  44%  43°F  60°F  30.00"
Sat 12:00 PM  87.3°F  83°F  7 mph W  6 mph  15 mph  0.00"  22%  47%  43°F  60°F  30.01"
Sat 11:00 AM  85.2°F  79°F  5 mph SW  4 mph  10 mph  0.00"  23%  51%  42°F  59°F  30.02"
Sat 10:00 AM  80.4°F  75°F  1 mph W  3 mph  6 mph  0.00"  31%  59%  46°F  59°F  30.01"
Sat 09:00 AM  73.5°F  71°F  calm  2 mph  none  0.00"  43%  66%  49°F  59°F  30.01"
Sat 08:00 AM  67.5°F  67°F  calm  1 mph  2 mph  0.00"  50%  73%  47°F  58°F  30.02"
Sat 07:00 AM  60.9°F  63°F  calm  1 mph  6 mph  0.00"  54%  77%  43°F  55°F  30.01"
Sat 06:00 AM  59.2°F  62°F  3 mph S  1 mph  3 mph  0.00"  54%  76%  42°F  54°F  30.00"
Sat 05:00 AM  60.6°F  62°F  calm  1 mph  5 mph  0.00"  49%  74%  41°F  54°F  29.98"
Sat 04:00 AM  60.9°F  63°F  calm  1 mph  5 mph  0.00"  52%  73%  42°F  54°F  29.97"

  1. Current weather data. No green row appears if the current weather data is also the high or low for the current day.
  2. High temperature for the current day.
  3. Low temperature for the current day.

The Simi Valley, California weather pages are a service of WeatherCurrents.
Copyright ©2020  WeatherCurrents. All rights reserved. - Submit questions and comments - Privacy Policy

This page automatically refreshes every 10 minutes.